Atalissa, IA

6:20 AM CDT on June 30, 2015 (GMT -0500)
1 1/2 Miles South Of West Branch | | Change Station
CLOSE
Current Station
Personal Weather Station
Location: West Branch, IA
Elevation: 755 ft
Nearby Weather Stations
Active Advisory: Flood Warning

Elev 755 ft 41.64 °N, 91.36 °W | Updated 1 minute ago

Clear
Clear
62.1 °F
Feels Like 62.1 °F
N
2.0
Wind Variable Wind from ENE
Gusts 3.0 mph

Today
High -- | Low -- °F
--% Chance of Precip.
Yesterday
High -- | Low -- °F
Precip. -- in
5:33 AM 8:42 PM
Waxing Gibbous, 97% visible
Pressure 29.82 in
Visibility 10.0 miles
Clouds Clear
Dew Point 62 °F
Humidity 99%
Rainfall in
Snow Depth Not available.
UV 0 out of 12
Pollen 2.90 out of 12
Air Quality Not available.
Flu Activity No Activity
METAR KMUT 300955Z AUTO 00000KT 10SM CLR 17/16 A2982 RMK AO2

More Conditions Fewer Conditions

Pressure 29.82 in
Visibility 10.0 miles
Clouds Clear
Dew Point 62 °F
Humidity 99%
Rainfall in
Snow Depth Not available.
UV 0 out of 12
Pollen 2.90 out of 12
Air Quality Not available.
Flu Activity No Activity
METAR KMUT 300955Z AUTO 00000KT 10SM CLR 17/16 A2982 RMK AO2

More Conditions Fewer Conditions

10-Day Weather Forecast

×

Almanac

Astronomy

Jun. 30, 2015 Rise Set
Actual Time
Civil Twilight
Nautical Twilight
Astronomical Twilight
Moon
Length of Visible Light
Length of Day
Tomorrow will be .
, % of the Moon is Illuminated

Today's Extremes

State Highs State Lows

Community

WunderPhotos

Upload Photos

1,833,975 photos uploaded!

WunderBlogs® & News

Nearby

Air Quality

  Air Quality AQ Index Pollutant
Not available.

Snow Depth

Station Depth Elevation

Earthquake Activity

City Distance Mag. Time & Date
Minimum magnitude displayed is 2.5.

Coastal Water Temperatures

Place Temperature

Stations

Nearby Weather Stations

Station Location Temp. Windchill Dew Point Humidity Wind Precip. Elev Updated Type
                   
Flood Warning
Statement as of 4:24 AM CDT on June 30, 2015

... Flood Warning remains in effect until Wednesday evening...

The Flood Warning continues for
the Cedar River near Conesville.
* Until Wednesday evening.
* At 4:00 am Tuesday the stage was 13.5 feet... and rising.
* Flood stage is 13 feet.
* Minor flooding is occurring.
* Forecast... rise to 13.6 feet this morning. Fall below flood stage
Wednesday evening.
* Impact... at 13.5 feet... water affects yards and access roads of
residences along Iowa Highway 22. Water affects the lowest
sections of campgrounds just north of I-80 along the river and the
lowest sections of Jack shuger Memorial Park in Moscow. Water is
also on 152nd street north of County Road f70.


Lat... Lon 4164 9121 4135 9139 4129 9132 4157 9106
      4170 9110